Time;durP1;ratioP1;P1;durP2;ratioP2;P2;SDS_P1;SDS_P2;PMS_P1;PMS_P2;Temp;Humidity;BMP_temperature;BMP_pressure;BME280_temperature;BME280_humidity;BME280_pressure;Samples;Min_cycle;Max_cycle;Signal;HPM_P1;HPM_P2
2022/08/11 00:02:00;;;;;;;2.67;2.47;;;;;;;;;;5073550;28;20407;-49
2022/08/11 00:04:27;;;;;;;2.33;2.20;;;;;;;;;;5074131;28;20473;-48
2022/08/11 00:06:53;;;;;;;3.83;2.47;;;;;;;;;;5074026;28;20956;-48
2022/08/11 00:09:20;;;;;;;3.63;2.80;;;;;;;;;;5073925;28;20965;-49
2022/08/11 00:11:46;;;;;;;4.40;3.17;;;;;;;;;;5073326;28;20817;-49
2022/08/11 00:14:15;;;;;;;3.10;2.43;;;;;;;;;;5064460;28;20422;-49
2022/08/11 00:16:42;;;;;;;2.80;2.60;;;;;;;;;;5073707;28;20448;-48
2022/08/11 00:19:09;;;;;;;2.73;2.53;;;;;;;;;;5073820;28;20558;-48
2022/08/11 00:21:40;;;;;;;2.60;2.40;;;;;;;;;;5073063;28;20495;-48
2022/08/11 00:24:07;;;;;;;2.47;2.27;;;;;;;;;;5072628;28;20412;-48
2022/08/11 00:26:35;;;;;;;2.97;2.30;;;;;;;;;;5073709;28;20434;-48
2022/08/11 00:29:10;;;;;;;3.80;2.60;;;;;;;;;;5073477;28;20889;-48
2022/08/11 00:31:37;;;;;;;4.17;2.50;;;;;;;;;;5072639;28;20484;-48
2022/08/11 00:34:04;;;;;;;3.07;2.87;;;;;;;;;;5073566;28;20437;-48
2022/08/11 00:36:38;;;;;;;3.00;2.70;;;;;;;;;;5073367;28;20412;-48
2022/08/11 00:39:05;;;;;;;3.17;2.70;;;;;;;;;;5073381;28;20399;-48
2022/08/11 00:41:44;;;;;;;2.97;2.77;;;;;;;;;;5072668;28;20409;-48
2022/08/11 00:44:12;;;;;;;3.10;2.47;;;;;;;;;;5060434;28;20428;-48
2022/08/11 00:46:45;;;;;;;3.13;2.83;;;;;;;;;;5053283;28;20424;-48
2022/08/11 00:49:17;;;;;;;3.50;2.93;;;;;;;;;;5053227;28;20407;-48
2022/08/11 00:52:12;;;;;;;2.90;2.60;;;;;;;;;;5052960;28;20482;-49
2022/08/11 00:54:38;;;;;;;8.70;3.03;;;;;;;;;;5016324;28;20408;-48
2022/08/11 00:57:04;;;;;;;3.70;2.80;;;;;;;;;;5053073;28;20574;-48
2022/08/11 00:59:33;;;;;;;11.40;3.30;;;;;;;;;;5052968;28;20776;-49
2022/08/11 01:02:08;;;;;;;3.47;2.83;;;;;;;;;;5051676;28;20410;-48
2022/08/11 01:04:41;;;;;;;2.73;2.53;;;;;;;;;;5052322;28;20458;-49
2022/08/11 01:07:06;;;;;;;3.90;2.70;;;;;;;;;;5052279;28;20475;-48
2022/08/11 01:09:51;;;;;;;3.70;2.77;;;;;;;;;;5052659;28;20406;-48
2022/08/11 01:12:24;;;;;;;4.43;3.13;;;;;;;;;;5052688;28;20461;-48
2022/08/11 01:15:14;;;;;;;2.87;2.67;;;;;;;;;;5052151;28;20998;-48
2022/08/11 01:17:46;;;;;;;8.03;2.90;;;;;;;;;;5051417;28;20488;-48
2022/08/11 01:20:12;;;;;;;2.70;2.50;;;;;;;;;;5051921;28;20410;-48
2022/08/11 01:23:03;;;;;;;2.50;2.20;;;;;;;;;;5052577;28;20483;-48
2022/08/11 01:25:41;;;;;;;2.73;2.57;;;;;;;;;;5051236;28;20420;-48
2022/08/11 01:28:21;;;;;;;3.20;2.90;;;;;;;;;;5052460;28;20799;-48
2022/08/11 01:31:06;;;;;;;6.17;3.13;;;;;;;;;;5051749;28;20957;-49
2022/08/11 01:33:50;;;;;;;3.00;2.70;;;;;;;;;;5052337;28;20425;-48
2022/08/11 01:36:40;;;;;;;3.23;3.03;;;;;;;;;;5052201;28;20590;-49
2022/08/11 01:39:17;;;;;;;2.80;2.60;;;;;;;;;;5052243;28;20873;-48
2022/08/11 01:44:36;;;;;;;5.70;2.70;;;;;;;;;;5051540;28;20424;-48
2022/08/11 01:47:49;;;;;;;5.47;2.60;;;;;;;;;;5063051;28;20448;-48
2022/08/11 01:50:24;;;;;;;3.03;2.73;;;;;;;;;;5071265;28;20404;-48
2022/08/11 01:52:53;;;;;;;4.90;2.73;;;;;;;;;;5063588;28;20425;-48
2022/08/11 01:55:33;;;;;;;2.77;2.57;;;;;;;;;;5072091;28;20397;-48
2022/08/11 01:58:02;;;;;;;3.20;3.00;;;;;;;;;;5071965;28;20475;-48
2022/08/11 02:00:30;;;;;;;5.60;2.73;;;;;;;;;;5071902;28;20467;-49
2022/08/11 02:03:05;;;;;;;2.63;2.43;;;;;;;;;;5072953;28;20397;-48
2022/08/11 02:05:34;;;;;;;3.33;2.90;;;;;;;;;;5072206;28;20402;-48
2022/08/11 02:08:09;;;;;;;7.93;2.87;;;;;;;;;;5071822;28;20920;-48
2022/08/11 02:13:48;;;;;;;3.93;2.97;;;;;;;;;;5071924;28;20395;-48
2022/08/11 02:16:17;;;;;;;4.57;3.13;;;;;;;;;;5054384;28;20530;-49
2022/08/11 02:25:08;;;;;;;6.37;3.43;;;;;;;;;;5029524;28;20471;-48
2022/08/11 02:27:43;;;;;;;4.10;3.30;;;;;;;;;;5029429;28;20449;-49
2022/08/11 02:30:16;;;;;;;4.80;3.80;;;;;;;;;;5056264;28;20419;-48
2022/08/11 02:36:09;;;;;;;6.30;3.47;;;;;;;;;;5072093;28;20390;-48
2022/08/11 02:38:55;;;;;;;9.33;3.57;;;;;;;;;;5071867;28;20422;-49
2022/08/11 02:44:08;;;;;;;4.50;4.10;;;;;;;;;;5070240;28;20958;-48
2022/08/11 02:46:53;;;;;;;3.83;3.40;;;;;;;;;;5071499;28;20419;-48
2022/08/11 02:52:34;;;;;;;5.60;4.17;;;;;;;;;;5071484;28;20505;-48
2022/08/11 02:55:06;;;;;;;4.93;4.50;;;;;;;;;;5072924;28;20400;-48
2022/08/11 02:57:41;;;;;;;4.47;4.13;;;;;;;;;;5075171;28;20795;-48
2022/08/11 03:00:14;;;;;;;5.17;4.67;;;;;;;;;;5074636;28;20407;-49
2022/08/11 03:02:59;;;;;;;6.20;5.10;;;;;;;;;;5075330;28;20414;-48
2022/08/11 03:05:25;;;;;;;4.67;4.20;;;;;;;;;;5075130;28;20397;-49
2022/08/11 03:08:10;;;;;;;6.43;4.13;;;;;;;;;;5075319;28;20449;-48
2022/08/11 03:10:41;;;;;;;4.30;4.00;;;;;;;;;;5074546;28;20403;-49
2022/08/11 03:19:07;;;;;;;4.20;3.70;;;;;;;;;;5054956;28;20396;-48
2022/08/11 03:21:38;;;;;;;3.87;3.50;;;;;;;;;;5054428;28;20830;-48
2022/08/11 03:24:23;;;;;;;4.70;3.40;;;;;;;;;;5054870;28;20553;-48
2022/08/11 03:27:09;;;;;;;3.83;3.40;;;;;;;;;;5054985;28;20512;-48
2022/08/11 03:29:42;;;;;;;4.23;3.93;;;;;;;;;;5054629;28;20400;-48
2022/08/11 03:32:20;;;;;;;3.87;3.50;;;;;;;;;;5054657;28;20837;-48
2022/08/11 03:34:48;;;;;;;3.90;3.50;;;;;;;;;;5054858;28;20404;-48
2022/08/11 03:37:49;;;;;;;6.03;3.57;;;;;;;;;;5054712;28;20476;-48
2022/08/11 03:43:24;;;;;;;4.07;3.77;;;;;;;;;;5054020;28;20399;-49
2022/08/11 03:46:11;;;;;;;5.70;3.40;;;;;;;;;;5074457;28;20935;-48
2022/08/11 03:48:56;;;;;;;6.10;4.20;;;;;;;;;;5074414;28;20886;-48
2022/08/11 03:51:24;;;;;;;4.20;3.80;;;;;;;;;;5073542;28;20430;-49
2022/08/11 03:53:53;;;;;;;4.13;3.83;;;;;;;;;;5074558;28;20403;-48
2022/08/11 03:56:41;;;;;;;4.37;3.97;;;;;;;;;;5074499;28;20419;-49
2022/08/11 03:59:07;;;;;;;4.07;3.63;;;;;;;;;;5074203;28;20408;-49
2022/08/11 04:01:41;;;;;;;6.13;4.30;;;;;;;;;;5073511;28;20410;-49
2022/08/11 04:04:07;;;;;;;4.53;4.13;;;;;;;;;;5074178;28;20752;-48
2022/08/11 04:06:36;;;;;;;8.10;4.40;;;;;;;;;;5073036;28;20418;-49
2022/08/11 04:09:05;;;;;;;4.60;4.20;;;;;;;;;;5074082;28;20816;-48
2022/08/11 04:11:46;;;;;;;4.40;4.00;;;;;;;;;;5073347;28;20446;-48
2022/08/11 04:17:29;;;;;;;5.03;4.33;;;;;;;;;;5053985;28;20462;-48
2022/08/11 04:20:14;;;;;;;7.13;4.20;;;;;;;;;;5053099;28;20724;-48
2022/08/11 04:22:51;;;;;;;5.23;4.07;;;;;;;;;;5053783;28;20378;-50
2022/08/11 04:25:28;;;;;;;5.53;4.83;;;;;;;;;;5053800;28;20409;-49
2022/08/11 04:27:57;;;;;;;8.43;4.33;;;;;;;;;;5053796;28;20548;-48
2022/08/11 04:30:41;;;;;;;4.00;3.60;;;;;;;;;;5052879;28;20390;-49
2022/08/11 04:33:33;;;;;;;5.57;4.23;;;;;;;;;;5053546;28;20419;-49
2022/08/11 04:36:20;;;;;;;5.27;3.80;;;;;;;;;;5053518;28;20412;-49
2022/08/11 04:38:46;;;;;;;4.40;4.00;;;;;;;;;;5053430;28;20391;-49
2022/08/11 04:41:25;;;;;;;5.90;4.37;;;;;;;;;;5052701;28;20796;-48
2022/08/11 04:43:55;;;;;;;4.70;4.30;;;;;;;;;;5052766;28;20430;-48
2022/08/11 04:46:41;;;;;;;5.30;4.13;;;;;;;;;;5053302;28;20469;-48
2022/08/11 05:04:05;;;;;;;4.30;3.90;;;;;;;;;;5053012;28;20808;-48
2022/08/11 05:07:10;;;;;;;5.03;4.27;;;;;;;;;;5052868;28;20438;-48
2022/08/11 05:09:48;;;;;;;4.00;3.70;;;;;;;;;;5052694;28;20399;-48
2022/08/11 05:12:28;;;;;;;4.97;4.20;;;;;;;;;;5052761;28;20497;-48
2022/08/11 05:27:09;;;;;;;5.63;4.10;;;;;;;;;;5052520;28;20485;-48
2022/08/11 05:34:53;;;;;;;6.20;5.40;;;;;;;;;;5052518;28;20821;-48
2022/08/11 05:37:19;;;;;;;8.37;5.73;;;;;;;;;;5052270;28;20424;-48
2022/08/11 05:56:29;;;;;;;9.23;5.50;;;;;;;;;;5052235;28;20467;-48
2022/08/11 05:58:56;;;;;;;5.70;5.07;;;;;;;;;;5052020;28;20408;-48
2022/08/11 06:01:26;;;;;;;6.70;5.10;;;;;;;;;;5051328;28;20482;-49
2022/08/11 06:06:41;;;;;;;7.77;5.00;;;;;;;;;;5051564;28;20520;-48
2022/08/11 06:09:08;;;;;;;4.93;4.53;;;;;;;;;;5051278;28;20484;-48
2022/08/11 06:11:42;;;;;;;4.80;4.40;;;;;;;;;;5050609;28;20495;-48
2022/08/11 06:14:09;;;;;;;5.00;4.20;;;;;;;;;;5050952;28;20440;-48
2022/08/11 06:16:36;;;;;;;5.00;4.50;;;;;;;;;;5051314;28;20486;-48
2022/08/11 06:19:03;;;;;;;5.83;4.83;;;;;;;;;;5051057;28;20394;-48
2022/08/11 06:21:33;;;;;;;5.13;4.63;;;;;;;;;;5050502;28;20418;-48
2022/08/11 06:23:59;;;;;;;5.90;4.33;;;;;;;;;;5051108;28;20437;-50
2022/08/11 06:26:25;;;;;;;15.00;5.20;;;;;;;;;;5051179;28;20433;-48
2022/08/11 06:28:51;;;;;;;4.77;4.27;;;;;;;;;;5052047;28;20865;-48
2022/08/11 06:31:23;;;;;;;7.33;5.93;;;;;;;;;;5057341;28;20486;-47
2022/08/11 06:34:00;;;;;;;8.80;7.90;;;;;;;;;;5058225;28;20490;-48
2022/08/11 06:36:50;;;;;;;13.20;11.43;;;;;;;;;;5058141;28;20438;-48
2022/08/11 06:39:42;;;;;;;11.03;6.13;;;;;;;;;;5058162;28;20406;-48
2022/08/11 06:42:13;;;;;;;5.23;4.70;;;;;;;;;;5042228;28;20415;-48
2022/08/11 06:44:41;;;;;;;6.30;5.37;;;;;;;;;;5058088;28;20431;-48
2022/08/11 06:47:08;;;;;;;6.73;3.87;;;;;;;;;;5070136;28;20836;-48
2022/08/11 06:52:28;;;;;;;9.20;4.90;;;;;;;;;;5077881;28;20477;-48
2022/08/11 06:55:05;;;;;;;13.03;4.13;;;;;;;;;;5078226;28;20859;-48
2022/08/11 07:00:29;;;;;;;4.83;4.43;;;;;;;;;;5077330;28;20954;-48
2022/08/11 07:03:02;;;;;;;5.37;4.00;;;;;;;;;;5078001;28;20430;-48
2022/08/11 07:05:42;;;;;;;4.40;3.90;;;;;;;;;;5078088;28;20396;-48
2022/08/11 07:16:27;;;;;;;4.00;3.67;;;;;;;;;;5058280;28;20447;-48
2022/08/11 07:30:10;;;;;;;6.00;3.70;;;;;;;;;;5057077;28;20492;-48
2022/08/11 07:32:38;;;;;;;4.30;3.93;;;;;;;;;;5057709;28;20452;-49
2022/08/11 07:35:12;;;;;;;4.40;4.00;;;;;;;;;;5057787;28;20873;-49
2022/08/11 07:37:40;;;;;;;5.20;3.70;;;;;;;;;;5057705;28;20419;-48
2022/08/11 07:40:07;;;;;;;4.03;3.70;;;;;;;;;;5056985;28;20397;-48
2022/08/11 07:42:36;;;;;;;4.20;3.70;;;;;;;;;;5054446;28;20528;-49
2022/08/11 07:53:24;;;;;;;4.40;4.10;;;;;;;;;;5074474;28;20404;-49
2022/08/11 07:55:53;;;;;;;5.93;3.27;;;;;;;;;;5074295;28;20737;-49
2022/08/11 08:17:56;;;;;;;3.50;3.20;;;;;;;;;;5053929;28;20416;-49
2022/08/11 08:20:42;;;;;;;4.50;3.40;;;;;;;;;;5053170;28;20404;-50
2022/08/11 08:23:08;;;;;;;3.17;2.87;;;;;;;;;;5053705;28;20406;-50
2022/08/11 08:25:36;;;;;;;5.93;3.40;;;;;;;;;;5053838;28;20404;-50
2022/08/11 08:28:06;;;;;;;3.17;2.97;;;;;;;;;;5053640;28;20421;-50
2022/08/11 08:30:48;;;;;;;3.47;3.17;;;;;;;;;;5052865;28;20405;-49
2022/08/11 08:33:35;;;;;;;2.90;2.70;;;;;;;;;;5053640;28;20831;-49
2022/08/11 08:36:14;;;;;;;5.13;3.13;;;;;;;;;;5053476;28;20408;-49
2022/08/11 08:38:47;;;;;;;4.90;3.10;;;;;;;;;;5053407;28;20385;-49
2022/08/11 08:41:14;;;;;;;5.60;2.93;;;;;;;;;;5053008;28;20417;-50
2022/08/11 08:43:42;;;;;;;2.70;2.60;;;;;;;;;;5053447;28;20435;-50
2022/08/11 08:46:09;;;;;;;3.00;2.80;;;;;;;;;;5053618;28;20429;-50
2022/08/11 08:48:35;;;;;;;3.93;3.10;;;;;;;;;;5053310;28;20788;-50
2022/08/11 08:53:51;;;;;;;3.33;3.07;;;;;;;;;;5053020;28;20912;-50
2022/08/11 08:56:18;;;;;;;3.10;2.80;;;;;;;;;;5053268;28;20940;-50
2022/08/11 08:58:46;;;;;;;3.13;2.93;;;;;;;;;;5052975;28;20784;-50
2022/08/11 09:01:13;;;;;;;3.13;2.80;;;;;;;;;;5052447;28;20401;-50
2022/08/11 09:03:39;;;;;;;4.00;3.20;;;;;;;;;;5052875;28;20401;-50
2022/08/11 09:06:06;;;;;;;3.50;3.20;;;;;;;;;;5052962;28;20733;-50
2022/08/11 09:08:33;;;;;;;2.83;2.63;;;;;;;;;;5052929;28;20404;-50
2022/08/11 09:13:46;;;;;;;4.90;2.73;;;;;;;;;;5072075;28;20428;-50
2022/08/11 09:16:12;;;;;;;3.93;2.70;;;;;;;;;;5062572;28;20455;-50
2022/08/11 09:18:39;;;;;;;3.20;2.60;;;;;;;;;;5072920;28;20396;-50
2022/08/11 09:21:06;;;;;;;3.17;2.87;;;;;;;;;;5071977;28;20415;-50
2022/08/11 09:29:03;;;;;;;3.10;2.90;;;;;;;;;;5072405;28;20411;-51
2022/08/11 09:31:32;;;;;;;2.90;2.70;;;;;;;;;;5071578;28;20463;-51
2022/08/11 09:33:58;;;;;;;5.13;3.30;;;;;;;;;;5072236;28;20400;-51
2022/08/11 09:41:56;;;;;;;4.07;2.53;;;;;;;;;;5049859;28;20404;-50
2022/08/11 09:47:12;;;;;;;2.67;2.50;;;;;;;;;;5052345;28;20974;-51
2022/08/11 09:49:38;;;;;;;2.53;2.33;;;;;;;;;;5051728;28;20417;-51
2022/08/11 09:52:08;;;;;;;3.03;2.73;;;;;;;;;;5051562;28;20449;-50
2022/08/11 09:54:34;;;;;;;2.53;2.43;;;;;;;;;;5051971;28;20919;-50
2022/08/11 09:59:45;;;;;;;2.83;2.73;;;;;;;;;;5051066;28;20450;-51
2022/08/11 10:02:11;;;;;;;2.53;2.23;;;;;;;;;;5052068;28;20817;-51
2022/08/11 10:04:44;;;;;;;2.63;2.43;;;;;;;;;;5050986;28;20393;-51
2022/08/11 10:07:14;;;;;;;5.07;2.70;;;;;;;;;;5054386;28;20421;-50
2022/08/11 10:09:40;;;;;;;2.70;2.50;;;;;;;;;;5055263;28;20762;-50
2022/08/11 10:12:27;;;;;;;3.47;2.70;;;;;;;;;;5055030;28;20445;-49
2022/08/11 10:20:34;;;;;;;3.23;2.43;;;;;;;;;;5054723;28;20417;-49
2022/08/11 10:28:32;;;;;;;4.50;3.77;;;;;;;;;;5075154;28;20488;-50
2022/08/11 10:33:59;;;;;;;4.50;2.47;;;;;;;;;;5071877;28;20399;-51
2022/08/11 10:36:26;;;;;;;4.90;2.57;;;;;;;;;;5071662;28;20408;-51
2022/08/11 10:38:53;;;;;;;4.37;2.27;;;;;;;;;;5071481;28;20392;-51
2022/08/11 10:44:05;;;;;;;3.23;2.70;;;;;;;;;;5071606;28;20531;-51
2022/08/11 10:49:17;;;;;;;2.47;2.27;;;;;;;;;;5051316;28;20405;-51
2022/08/11 10:59:59;;;;;;;2.50;2.30;;;;;;;;;;5050694;28;20851;-51
2022/08/11 11:02:26;;;;;;;2.90;2.70;;;;;;;;;;5051591;28;20477;-52
2022/08/11 11:04:57;;;;;;;3.73;2.53;;;;;;;;;;5051290;28;20397;-51
2022/08/11 11:07:29;;;;;;;2.60;2.40;;;;;;;;;;5051384;28;20488;-51
2022/08/11 11:10:01;;;;;;;2.37;2.27;;;;;;;;;;5050329;28;20924;-51
2022/08/11 11:18:11;;;;;;;2.60;2.47;;;;;;;;;;5060856;28;20509;-51
2022/08/11 11:20:41;;;;;;;2.20;2.10;;;;;;;;;;5074100;28;20766;-51
2022/08/11 11:23:19;;;;;;;2.67;2.47;;;;;;;;;;5074778;28;20396;-51
2022/08/11 11:26:06;;;;;;;3.10;2.73;;;;;;;;;;5074808;28;20408;-52
2022/08/11 11:28:47;;;;;;;4.17;2.70;;;;;;;;;;5074675;28;20415;-51
2022/08/11 11:31:21;;;;;;;3.87;2.70;;;;;;;;;;5074377;28;20452;-51
2022/08/11 11:33:47;;;;;;;3.90;2.23;;;;;;;;;;5074348;28;20405;-51
2022/08/11 11:36:13;;;;;;;2.60;2.40;;;;;;;;;;5074498;28;20419;-51
2022/08/11 11:38:40;;;;;;;2.83;2.63;;;;;;;;;;5074837;28;20400;-51
2022/08/11 11:41:25;;;;;;;2.57;2.33;;;;;;;;;;5073867;28;20641;-51
2022/08/11 11:43:56;;;;;;;3.43;2.47;;;;;;;;;;5074445;28;20396;-51
2022/08/11 11:46:24;;;;;;;2.40;2.30;;;;;;;;;;5066762;28;20823;-51
2022/08/11 11:48:50;;;;;;;1.90;1.80;;;;;;;;;;5054390;28;20406;-51
2022/08/11 11:51:17;;;;;;;3.27;2.50;;;;;;;;;;5053520;28;20456;-51
2022/08/11 11:53:44;;;;;;;3.53;2.83;;;;;;;;;;5054087;28;20500;-51
2022/08/11 11:56:11;;;;;;;3.47;2.23;;;;;;;;;;5054166;28;20551;-51
2022/08/11 12:01:24;;;;;;;2.70;2.47;;;;;;;;;;5053722;28;20397;-51
2022/08/11 12:03:50;;;;;;;2.50;2.30;;;;;;;;;;5054011;28;20401;-51
2022/08/11 12:06:17;;;;;;;2.70;2.50;;;;;;;;;;5053983;28;20959;-51
2022/08/11 12:08:44;;;;;;;2.80;2.40;;;;;;;;;;5053847;28;20428;-51
2022/08/11 12:13:58;;;;;;;2.90;2.70;;;;;;;;;;5054287;28;20428;-51
2022/08/11 12:16:24;;;;;;;2.23;2.10;;;;;;;;;;5064780;28;20471;-51
2022/08/11 12:18:55;;;;;;;2.80;1.97;;;;;;;;;;5073720;28;20491;-51
2022/08/11 12:21:22;;;;;;;3.33;2.23;;;;;;;;;;5073045;28;20419;-51
2022/08/11 12:29:26;;;;;;;2.60;2.40;;;;;;;;;;5053584;28;20412;-51
2022/08/11 12:31:53;;;;;;;2.70;2.50;;;;;;;;;;5072990;28;20448;-51
2022/08/11 12:34:19;;;;;;;2.40;2.20;;;;;;;;;;5073400;28;20400;-51
2022/08/11 12:36:54;;;;;;;2.20;2.10;;;;;;;;;;5073305;28;20790;-51
2022/08/11 12:45:26;;;;;;;3.77;2.33;;;;;;;;;;5073313;28;20937;-51
2022/08/11 12:53:22;;;;;;;3.30;3.10;;;;;;;;;;5073470;28;20474;-50
2022/08/11 12:58:34;;;;;;;2.70;2.50;;;;;;;;;;5073120;28;20578;-50
2022/08/11 13:06:30;;;;;;;4.43;2.60;;;;;;;;;;5072780;28;20461;-49
2022/08/11 13:08:57;;;;;;;7.60;3.50;;;;;;;;;;5072763;28;20403;-49
2022/08/11 13:14:08;;;;;;;3.80;2.57;;;;;;;;;;5072721;28;21014;-50
2022/08/11 13:19:21;;;;;;;2.47;2.30;;;;;;;;;;5052618;28;20455;-49
2022/08/11 13:21:48;;;;;;;3.13;2.60;;;;;;;;;;5051806;28;20409;-49
2022/08/11 13:24:17;;;;;;;2.70;2.60;;;;;;;;;;5052313;28;20417;-50
2022/08/11 13:26:43;;;;;;;2.83;2.60;;;;;;;;;;5052361;28;20468;-50
2022/08/11 13:29:09;;;;;;;5.70;2.07;;;;;;;;;;5052810;28;20417;-51
2022/08/11 13:31:36;;;;;;;3.87;2.40;;;;;;;;;;5051836;28;20554;-50
2022/08/11 13:34:02;;;;;;;2.40;2.30;;;;;;;;;;5052407;28;20402;-50
2022/08/11 13:36:28;;;;;;;2.17;2.07;;;;;;;;;;5052189;28;20421;-50
2022/08/11 13:38:57;;;;;;;3.43;2.67;;;;;;;;;;5052214;28;20394;-50
2022/08/11 13:41:40;;;;;;;5.10;2.40;;;;;;;;;;5051990;28;20919;-50
2022/08/11 13:44:07;;;;;;;3.20;2.47;;;;;;;;;;5052283;28;20408;-51
2022/08/11 13:46:33;;;;;;;2.97;2.77;;;;;;;;;;5054968;28;20966;-50
2022/08/11 13:49:00;;;;;;;2.80;2.60;;;;;;;;;;5052965;28;20904;-50
2022/08/11 13:51:29;;;;;;;2.70;2.53;;;;;;;;;;5051899;28;20551;-51
2022/08/11 13:53:57;;;;;;;2.70;2.50;;;;;;;;;;5052199;28;20484;-51
2022/08/11 13:56:23;;;;;;;2.90;2.20;;;;;;;;;;5053222;28;20570;-50
2022/08/11 13:58:50;;;;;;;3.00;2.80;;;;;;;;;;5051874;28;20425;-50
2022/08/11 14:01:17;;;;;;;10.83;2.80;;;;;;;;;;5052042;28;20488;-50
2022/08/11 14:03:43;;;;;;;3.40;2.63;;;;;;;;;;5051891;28;20506;-50
2022/08/11 14:06:10;;;;;;;3.47;3.00;;;;;;;;;;5051922;28;20831;-52
2022/08/11 14:08:37;;;;;;;3.27;2.70;;;;;;;;;;5051920;28;20410;-50
2022/08/11 14:13:51;;;;;;;2.43;2.27;;;;;;;;;;5052166;28;20403;-50
2022/08/11 14:16:21;;;;;;;2.63;2.43;;;;;;;;;;5052079;28;20432;-50
2022/08/11 14:18:49;;;;;;;2.70;2.50;;;;;;;;;;5057824;28;20461;-50
2022/08/11 14:24:02;;;;;;;2.30;2.20;;;;;;;;;;5051952;28;20487;-50
2022/08/11 14:26:30;;;;;;;2.50;2.40;;;;;;;;;;5051408;28;20429;-51
2022/08/11 14:29:06;;;;;;;3.73;2.80;;;;;;;;;;5051643;28;20412;-49
2022/08/11 14:31:33;;;;;;;2.50;2.30;;;;;;;;;;5050918;28;20448;-49
2022/08/11 14:34:01;;;;;;;3.00;2.20;;;;;;;;;;5051535;28;20401;-50
2022/08/11 14:36:29;;;;;;;2.50;2.10;;;;;;;;;;5051308;28;20429;-50
2022/08/11 14:38:56;;;;;;;2.20;2.10;;;;;;;;;;5051364;28;20401;-50
2022/08/11 14:47:05;;;;;;;4.90;2.60;;;;;;;;;;5051712;28;20444;-50
2022/08/11 14:49:38;;;;;;;4.43;2.63;;;;;;;;;;5063179;28;20464;-50
2022/08/11 14:52:06;;;;;;;3.30;2.10;;;;;;;;;;5074383;28;20501;-50
2022/08/11 14:57:18;;;;;;;3.10;2.90;;;;;;;;;;5073674;28;20494;-50
2022/08/11 14:59:48;;;;;;;2.77;2.57;;;;;;;;;;5074769;28;20479;-50
2022/08/11 15:05:01;;;;;;;7.90;3.07;;;;;;;;;;5075643;28;20496;-50
2022/08/11 15:07:30;;;;;;;2.30;2.20;;;;;;;;;;5075776;28;20442;-52
2022/08/11 15:10:01;;;;;;;2.73;2.53;;;;;;;;;;5074391;28;20400;-51
2022/08/11 15:12:27;;;;;;;9.73;2.30;;;;;;;;;;5074955;28;20534;-51
2022/08/11 15:17:39;;;;;;;2.20;2.10;;;;;;;;;;5075154;28;20458;-52
2022/08/11 15:25:37;;;;;;;3.07;2.40;;;;;;;;;;5053973;28;20765;-52
2022/08/11 15:39:14;;;;;;;2.70;2.50;;;;;;;;;;5055421;28;20393;-50
2022/08/11 15:47:15;;;;;;;3.30;3.10;;;;;;;;;;5054501;28;20509;-50
2022/08/11 15:49:42;;;;;;;7.90;3.20;;;;;;;;;;5054440;28;20912;-50
2022/08/11 15:52:08;;;;;;;5.47;3.03;;;;;;;;;;5065355;28;20471;-50
2022/08/11 15:54:38;;;;;;;4.83;3.13;;;;;;;;;;5074749;28;20491;-50
2022/08/11 15:57:04;;;;;;;3.27;2.97;;;;;;;;;;5074200;28;20448;-50
2022/08/11 16:04:51;;;;;;;4.80;3.73;;;;;;;;;;5074368;28;20404;-51
2022/08/11 16:07:24;;;;;;;5.10;3.40;;;;;;;;;;5067510;28;20908;-50
2022/08/11 16:10:04;;;;;;;4.63;3.00;;;;;;;;;;5060801;28;20417;-50
2022/08/11 16:18:48;;;;;;;3.17;2.97;;;;;;;;;;5053472;28;20401;-50
2022/08/11 16:21:16;;;;;;;3.07;2.97;;;;;;;;;;5060742;28;20432;-50
2022/08/11 16:23:43;;;;;;;5.00;2.90;;;;;;;;;;5073656;28;20458;-50
2022/08/11 16:26:10;;;;;;;3.33;3.10;;;;;;;;;;5073654;28;20799;-50
2022/08/11 16:28:37;;;;;;;3.70;3.07;;;;;;;;;;5073584;28;20392;-50
2022/08/11 16:31:09;;;;;;;7.87;3.30;;;;;;;;;;5072831;28;20389;-50
2022/08/11 16:33:36;;;;;;;3.80;3.03;;;;;;;;;;5073340;28;20400;-50
2022/08/11 16:38:49;;;;;;;7.70;3.70;;;;;;;;;;5073554;28;20399;-50
2022/08/11 16:46:58;;;;;;;5.93;3.30;;;;;;;;;;5072824;28;20400;-50
2022/08/11 16:49:25;;;;;;;4.50;3.60;;;;;;;;;;5071899;28;20955;-50
2022/08/11 16:51:51;;;;;;;3.07;2.87;;;;;;;;;;5072704;28;20455;-50
2022/08/11 16:54:18;;;;;;;3.30;3.10;;;;;;;;;;5073187;28;20405;-50
2022/08/11 16:56:48;;;;;;;11.50;3.60;;;;;;;;;;5061242;28;20476;-50
2022/08/11 16:59:30;;;;;;;4.60;3.33;;;;;;;;;;5053337;28;20904;-50
2022/08/11 17:02:01;;;;;;;3.33;2.83;;;;;;;;;;5052431;28;20401;-50
2022/08/11 17:13:25;;;;;;;3.30;3.00;;;;;;;;;;5053193;28;20468;-50
2022/08/11 17:18:39;;;;;;;3.90;3.13;;;;;;;;;;5052876;28;20397;-51
2022/08/11 17:21:05;;;;;;;3.47;3.27;;;;;;;;;;5051920;28;20425;-50
2022/08/11 17:23:48;;;;;;;3.50;3.30;;;;;;;;;;5052636;28;20393;-50
2022/08/11 17:26:19;;;;;;;3.70;3.40;;;;;;;;;;5052803;28;20433;-51
2022/08/11 17:28:45;;;;;;;9.50;3.13;;;;;;;;;;5051678;28;20476;-50
2022/08/11 17:36:43;;;;;;;3.60;3.30;;;;;;;;;;5052285;28;20421;-51
2022/08/11 17:39:13;;;;;;;3.37;3.17;;;;;;;;;;5052303;28;20603;-51
2022/08/11 17:49:55;;;;;;;4.80;3.53;;;;;;;;;;5051621;28;20400;-49
2022/08/11 18:00:37;;;;;;;4.00;3.60;;;;;;;;;;5059673;28;20444;-50
2022/08/11 18:05:48;;;;;;;3.70;3.50;;;;;;;;;;5052014;28;20546;-50
